Time;durP1;ratioP1;P1;durP2;ratioP2;P2;SDS_P1;SDS_P2;PMS_P1;PMS_P2;Temp;Humidity;BMP_temperature;BMP_pressure;BME280_temperature;BME280_humidity;BME280_pressure;Samples;Min_cycle;Max_cycle;Signal;HPM_P1;HPM_P2
2022/06/15 00:00:40;;;;;;;7.30;2.03;;;;;;;;;;4959445;28;20335;-76
2022/06/15 00:03:06;;;;;;;8.57;2.10;;;;;;;;;;4959967;28;20043;-75
2022/06/15 00:05:32;;;;;;;8.93;2.30;;;;;;;;;;4961407;28;20112;-78
2022/06/15 00:07:58;;;;;;;7.82;2.22;;;;;;;;;;4960477;28;20501;-71
2022/06/15 00:10:24;;;;;;;9.40;2.03;;;;;;;;;;4954710;28;20054;-74
2022/06/15 00:12:50;;;;;;;5.88;1.92;;;;;;;;;;4956710;28;20054;-70
2022/06/15 00:15:16;;;;;;;10.10;2.50;;;;;;;;;;4959956;28;20050;-72
2022/06/15 00:17:42;;;;;;;6.88;2.17;;;;;;;;;;4961130;28;20066;-76
2022/06/15 00:20:09;;;;;;;10.70;2.40;;;;;;;;;;4960363;28;20397;-72
2022/06/15 00:22:35;;;;;;;7.47;2.10;;;;;;;;;;4958379;28;20046;-73
2022/06/15 00:25:01;;;;;;;9.90;2.45;;;;;;;;;;4961068;28;20096;-74
2022/06/15 00:27:27;;;;;;;6.70;1.95;;;;;;;;;;4957593;28;20066;-72
2022/06/15 00:29:52;;;;;;;5.10;2.20;;;;;;;;;;4961065;28;20160;-73
2022/06/15 00:32:18;;;;;;;4.18;2.40;;;;;;;;;;4958052;28;20469;-74
2022/06/15 00:34:44;;;;;;;7.32;1.90;;;;;;;;;;4961644;28;20058;-71
2022/06/15 00:37:10;;;;;;;6.55;2.08;;;;;;;;;;4958198;28;20051;-75
2022/06/15 00:39:36;;;;;;;7.07;1.92;;;;;;;;;;4961980;28;20046;-72
2022/06/15 00:42:02;;;;;;;6.03;2.28;;;;;;;;;;4959304;28;20161;-73
2022/06/15 00:44:33;;;;;;;6.45;2.72;;;;;;;;;;4959499;28;20047;-72
2022/06/15 00:47:22;;;;;;;5.55;2.00;;;;;;;;;;4959996;28;20134;-76
2022/06/15 00:50:00;;;;;;;8.95;2.03;;;;;;;;;;4965155;28;20081;-76
2022/06/15 00:52:41;;;;;;;7.38;2.40;;;;;;;;;;4964254;28;20063;-70
2022/06/15 00:55:16;;;;;;;5.95;2.33;;;;;;;;;;4963069;28;20070;-72
2022/06/15 00:57:42;;;;;;;5.53;2.10;;;;;;;;;;4962626;28;20039;-75
2022/06/15 01:00:09;;;;;;;6.10;1.98;;;;;;;;;;4958689;28;20053;-79
2022/06/15 01:02:36;;;;;;;5.60;2.45;;;;;;;;;;4964696;28;20046;-77
2022/06/15 01:05:07;;;;;;;6.45;2.15;;;;;;;;;;4963358;28;20046;-76
2022/06/15 01:07:52;;;;;;;10.00;2.53;;;;;;;;;;4962852;28;20047;-76
2022/06/15 01:10:26;;;;;;;9.77;2.72;;;;;;;;;;4962795;28;20480;-72
2022/06/15 01:13:06;;;;;;;9.07;2.55;;;;;;;;;;4963592;28;20047;-74
2022/06/15 01:15:38;;;;;;;7.97;2.20;;;;;;;;;;4961754;28;20074;-72
2022/06/15 01:18:04;;;;;;;3.97;2.05;;;;;;;;;;4964116;28;20055;-71
2022/06/15 01:21:04;;;;;;;6.78;2.40;;;;;;;;;;4965409;28;21026;-75
2022/06/15 01:23:42;;;;;;;5.57;2.50;;;;;;;;;;4962179;28;20871;-74
2022/06/15 01:26:17;;;;;;;9.77;2.67;;;;;;;;;;4964152;28;20042;-75
2022/06/15 01:28:51;;;;;;;6.20;2.10;;;;;;;;;;4961890;28;20059;-77
2022/06/15 01:31:40;;;;;;;4.57;2.42;;;;;;;;;;4959777;28;20448;-72
2022/06/15 01:34:32;;;;;;;5.75;2.50;;;;;;;;;;4963746;28;20109;-80
2022/06/15 01:37:23;;;;;;;4.90;2.40;;;;;;;;;;4964579;28;20086;-73
2022/06/15 01:39:52;;;;;;;7.55;2.42;;;;;;;;;;4964054;28;20073;-72
2022/06/15 01:42:38;;;;;;;9.15;2.30;;;;;;;;;;4961970;28;20208;-75
2022/06/15 01:45:11;;;;;;;5.55;2.55;;;;;;;;;;4960528;28;20058;-79
2022/06/15 01:47:39;;;;;;;5.90;2.47;;;;;;;;;;4963458;28;20051;-70
2022/06/15 01:50:08;;;;;;;7.25;2.33;;;;;;;;;;4961809;28;20190;-78
2022/06/15 01:52:59;;;;;;;5.80;2.30;;;;;;;;;;4964689;28;20058;-76
2022/06/15 01:55:31;;;;;;;4.63;2.50;;;;;;;;;;4962139;28;20076;-73
2022/06/15 01:58:02;;;;;;;7.10;2.53;;;;;;;;;;4962304;28;20433;-72
2022/06/15 02:00:28;;;;;;;8.82;2.80;;;;;;;;;;4960628;28;20078;-70
2022/06/15 02:03:00;;;;;;;8.55;2.83;;;;;;;;;;4961273;28;20485;-70
2022/06/15 02:05:49;;;;;;;7.53;2.83;;;;;;;;;;4965389;28;20562;-78
2022/06/15 02:08:49;;;;;;;9.07;2.78;;;;;;;;;;4961308;28;20066;-75
2022/06/15 02:11:23;;;;;;;9.95;2.60;;;;;;;;;;4961562;28;20197;-70
2022/06/15 02:13:56;;;;;;;;;;;;;;;;;;4959394;28;20074;-73
2022/06/15 02:16:40;;;;;;;6.97;2.45;;;;;;;;;;4962322;28;19965;-71
2022/06/15 02:19:09;;;;;;;9.07;2.60;;;;;;;;;;4962944;28;20369;-74
2022/06/15 02:21:39;;;;;;;9.20;2.72;;;;;;;;;;4962834;28;20074;-72
2022/06/15 02:24:07;;;;;;;7.03;2.72;;;;;;;;;;4960050;28;20149;-72
2022/06/15 02:26:36;;;;;;;6.35;2.70;;;;;;;;;;4965155;28;20055;-74
2022/06/15 02:29:18;;;;;;;7.28;2.67;;;;;;;;;;4965233;28;20150;-78
2022/06/15 02:31:44;;;;;;;6.72;2.70;;;;;;;;;;4960971;28;20046;-78
2022/06/15 02:34:10;;;;;;;7.97;3.25;;;;;;;;;;4958957;28;20050;-71
2022/06/15 02:36:36;;;;;;;6.03;2.55;;;;;;;;;;4962580;28;20054;-78
2022/06/15 02:39:05;;;;;;;8.13;2.78;;;;;;;;;;4962900;28;20062;-72
2022/06/15 02:41:31;;;;;;;5.88;2.35;;;;;;;;;;4962757;28;20099;-76
2022/06/15 02:44:00;;;;;;;8.43;2.90;;;;;;;;;;4961452;28;20050;-73
2022/06/15 02:46:27;;;;;;;12.25;2.63;;;;;;;;;;4961830;28;20055;-72
2022/06/15 02:48:54;;;;;;;10.15;2.85;;;;;;;;;;4961853;28;20085;-76
2022/06/15 02:51:31;;;;;;;4.93;2.25;;;;;;;;;;4961001;28;20047;-72
2022/06/15 02:54:00;;;;;;;7.95;2.47;;;;;;;;;;4962423;28;21239;-76
2022/06/15 02:56:27;;;;;;;9.80;2.60;;;;;;;;;;4964363;28;20081;-76
2022/06/15 02:58:53;;;;;;;5.95;2.20;;;;;;;;;;4961898;28;20194;-75
2022/06/15 03:01:19;;;;;;;6.38;2.30;;;;;;;;;;4962115;28;20050;-73
2022/06/15 03:03:47;;;;;;;11.10;2.50;;;;;;;;;;4962682;28;20054;-72
2022/06/15 03:06:15;;;;;;;10.60;2.33;;;;;;;;;;4959338;28;20522;-74
2022/06/15 03:08:42;;;;;;;9.55;2.45;;;;;;;;;;4959738;28;20054;-73
2022/06/15 03:11:08;;;;;;;11.27;2.50;;;;;;;;;;4961246;28;20409;-73
2022/06/15 03:13:34;;;;;;;7.50;2.15;;;;;;;;;;4960683;28;20057;-73
2022/06/15 03:16:02;;;;;;;9.35;2.20;;;;;;;;;;4960208;28;20515;-70
2022/06/15 03:18:29;;;;;;;6.60;2.00;;;;;;;;;;4958792;28;20501;-73
2022/06/15 03:20:58;;;;;;;8.00;2.38;;;;;;;;;;4958548;28;20073;-72
2022/06/15 03:23:25;;;;;;;7.97;2.47;;;;;;;;;;4959452;28;20061;-75
2022/06/15 03:25:56;;;;;;;7.03;2.22;;;;;;;;;;4960402;28;20062;-71
2022/06/15 03:28:23;;;;;;;8.88;2.58;;;;;;;;;;4960175;28;20050;-70
2022/06/15 03:30:49;;;;;;;11.52;2.70;;;;;;;;;;4961320;28;20062;-69
2022/06/15 03:33:16;;;;;;;11.95;2.13;;;;;;;;;;4961723;28;20049;-73
2022/06/15 03:35:42;;;;;;;5.85;2.22;;;;;;;;;;4963955;28;20139;-72
2022/06/15 03:38:09;;;;;;;10.55;2.70;;;;;;;;;;4963146;28;20543;-72
2022/06/15 03:40:41;;;;;;;6.47;2.25;;;;;;;;;;4960421;28;20054;-74
2022/06/15 03:43:07;;;;;;;4.18;2.08;;;;;;;;;;4959884;28;20054;-77
2022/06/15 03:45:34;;;;;;;8.00;2.25;;;;;;;;;;4954803;28;20043;-76
2022/06/15 03:48:01;;;;;;;7.30;2.85;;;;;;;;;;4961356;28;20594;-71
2022/06/15 03:50:29;;;;;;;7.80;2.28;;;;;;;;;;4960805;28;20051;-68
2022/06/15 03:52:55;;;;;;;7.22;2.22;;;;;;;;;;4959982;28;20077;-70
2022/06/15 03:55:21;;;;;;;10.18;2.50;;;;;;;;;;4962675;28;20507;-71
2022/06/15 03:57:47;;;;;;;7.38;2.40;;;;;;;;;;4960195;28;20050;-71
2022/06/15 04:00:17;;;;;;;5.75;2.85;;;;;;;;;;4958873;28;20042;-72
2022/06/15 04:02:43;;;;;;;6.93;2.67;;;;;;;;;;4959715;28;20046;-75
2022/06/15 04:05:16;;;;;;;9.85;2.80;;;;;;;;;;4962668;28;20050;-72
2022/06/15 04:10:40;;;;;;;4.88;2.28;;;;;;;;;;4923162;29;20102;-75
2022/06/15 04:13:06;;;;;;;6.03;2.70;;;;;;;;;;4929326;29;20138;-74
2022/06/15 04:15:32;;;;;;;11.48;2.78;;;;;;;;;;4926969;29;20122;-80
2022/06/15 04:17:58;;;;;;;10.13;2.80;;;;;;;;;;4928432;29;20064;-77
2022/06/15 04:20:31;;;;;;;7.10;2.90;;;;;;;;;;4933132;28;20421;-82
2022/06/15 04:23:01;;;;;;;7.05;2.78;;;;;;;;;;4928895;29;20124;-78
2022/06/15 04:25:29;;;;;;;6.82;2.67;;;;;;;;;;4931173;29;20058;-79
2022/06/15 04:27:56;;;;;;;7.15;3.17;;;;;;;;;;4925254;29;20047;-72
2022/06/15 04:30:22;;;;;;;11.32;2.88;;;;;;;;;;4927895;29;20512;-78
2022/06/15 04:32:48;;;;;;;14.05;3.17;;;;;;;;;;4911447;29;20067;-79
2022/06/15 04:35:14;;;;;;;6.65;2.70;;;;;;;;;;4923587;29;20044;-78
2022/06/15 04:37:40;;;;;;;7.97;2.70;;;;;;;;;;4925729;29;20051;-81
2022/06/15 04:40:07;;;;;;;11.50;2.90;;;;;;;;;;4927241;29;20466;-81
2022/06/15 04:42:33;;;;;;;11.27;2.90;;;;;;;;;;4930906;29;20802;-79
2022/06/15 04:44:59;;;;;;;8.35;3.30;;;;;;;;;;4929478;28;20850;-80
2022/06/15 04:47:25;;;;;;;11.15;3.70;;;;;;;;;;4959648;28;20136;-76
2022/06/15 04:49:51;;;;;;;12.70;4.07;;;;;;;;;;4962779;28;20468;-80
2022/06/15 04:52:16;;;;;;;14.48;4.22;;;;;;;;;;4958360;28;20043;-76
2022/06/15 04:54:42;;;;;;;9.27;4.30;;;;;;;;;;4964104;28;20055;-80
2022/06/15 04:57:11;;;;;;;11.55;5.95;;;;;;;;;;4960388;28;20038;-77
2022/06/15 04:59:36;;;;;;;17.40;6.03;;;;;;;;;;4961538;28;20500;-77
2022/06/15 05:02:03;;;;;;;16.90;6.53;;;;;;;;;;4957132;28;20082;-80
2022/06/15 05:04:29;;;;;;;19.40;6.68;;;;;;;;;;4962782;28;20077;-76
2022/06/15 05:06:55;;;;;;;15.93;6.15;;;;;;;;;;4959902;28;20133;-75
2022/06/15 05:09:21;;;;;;;18.02;6.03;;;;;;;;;;4960182;28;20051;-86
2022/06/15 05:11:47;;;;;;;22.35;6.60;;;;;;;;;;4960984;28;20049;-75
2022/06/15 05:14:13;;;;;;;19.98;6.15;;;;;;;;;;4959909;28;20042;-80
2022/06/15 05:16:39;;;;;;;16.33;6.28;;;;;;;;;;4963325;28;20038;-75
2022/06/15 05:19:05;;;;;;;16.90;6.57;;;;;;;;;;4963106;28;20412;-74
2022/06/15 05:21:31;;;;;;;10.68;5.60;;;;;;;;;;4960713;28;20166;-75
2022/06/15 05:23:57;;;;;;;15.60;5.95;;;;;;;;;;4962128;28;20563;-74
2022/06/15 05:26:26;;;;;;;19.30;6.57;;;;;;;;;;4959354;28;20244;-75
2022/06/15 05:28:52;;;;;;;14.88;6.43;;;;;;;;;;4959690;28;20153;-76
2022/06/15 05:31:21;;;;;;;14.50;5.97;;;;;;;;;;4959014;28;20449;-74
2022/06/15 05:33:53;;;;;;;14.13;5.95;;;;;;;;;;4964734;28;20054;-76
2022/06/15 05:36:21;;;;;;;14.52;5.75;;;;;;;;;;4965174;28;20055;-75
2022/06/15 05:38:47;;;;;;;12.52;5.28;;;;;;;;;;4962341;28;20533;-75
2022/06/15 05:41:13;;;;;;;21.10;6.10;;;;;;;;;;4965976;28;20061;-77
2022/06/15 05:43:47;;;;;;;17.17;4.88;;;;;;;;;;4963365;28;20063;-76
2022/06/15 05:46:28;;;;;;;13.32;4.70;;;;;;;;;;4963019;28;20047;-76
2022/06/15 05:48:54;;;;;;;12.50;5.32;;;;;;;;;;4966327;28;20062;-77
2022/06/15 05:51:20;;;;;;;12.95;3.90;;;;;;;;;;4965173;28;20571;-76
2022/06/15 05:53:46;;;;;;;12.82;3.33;;;;;;;;;;4964690;28;20049;-79
2022/06/15 05:56:12;;;;;;;9.13;3.25;;;;;;;;;;4963377;28;20043;-79
2022/06/15 05:58:37;;;;;;;12.95;3.72;;;;;;;;;;4967702;28;20112;-80
2022/06/15 06:01:16;;;;;;;9.18;3.30;;;;;;;;;;4965993;28;20186;-80
2022/06/15 06:03:42;;;;;;;9.73;3.47;;;;;;;;;;4970766;28;20051;-78
2022/06/15 06:06:10;;;;;;;8.48;2.78;;;;;;;;;;4969061;28;20051;-76
2022/06/15 06:08:35;;;;;;;18.35;3.10;;;;;;;;;;4966719;28;20405;-78
2022/06/15 06:11:02;;;;;;;7.70;2.92;;;;;;;;;;4967582;28;20072;-77
2022/06/15 06:13:28;;;;;;;6.40;2.63;;;;;;;;;;4967506;28;20055;-77
2022/06/15 06:15:55;;;;;;;14.77;3.78;;;;;;;;;;4966428;28;20050;-79
2022/06/15 06:18:22;;;;;;;9.57;2.90;;;;;;;;;;4966887;28;20054;-77
2022/06/15 06:20:48;;;;;;;10.50;2.97;;;;;;;;;;4965744;28;20073;-77
2022/06/15 06:23:14;;;;;;;12.40;2.95;;;;;;;;;;4967495;28;20142;-78
2022/06/15 06:25:42;;;;;;;9.02;2.80;;;;;;;;;;4965499;28;21338;-77
2022/06/15 06:28:23;;;;;;;8.45;3.20;;;;;;;;;;4965781;28;20477;-78
2022/06/15 06:30:49;;;;;;;9.13;2.95;;;;;;;;;;4960827;28;20047;-76
2022/06/15 06:33:15;;;;;;;13.05;3.38;;;;;;;;;;4964657;28;20326;-79
2022/06/15 06:35:41;;;;;;;9.65;3.90;;;;;;;;;;4964989;28;20252;-82
2022/06/15 06:38:07;;;;;;;17.95;4.28;;;;;;;;;;4960211;28;20265;-81
2022/06/15 06:40:33;;;;;;;14.10;4.22;;;;;;;;;;4964852;28;20046;-78
2022/06/15 06:42:59;;;;;;;12.13;4.88;;;;;;;;;;4962902;28;20052;-80
2022/06/15 06:45:25;;;;;;;11.52;4.35;;;;;;;;;;4962095;28;20069;-78
2022/06/15 06:47:51;;;;;;;13.13;4.20;;;;;;;;;;4960866;28;20408;-75
2022/06/15 06:50:17;;;;;;;11.55;3.92;;;;;;;;;;4959264;28;20520;-81
2022/06/15 06:52:43;;;;;;;13.25;4.50;;;;;;;;;;4958846;28;20310;-75
2022/06/15 06:55:10;;;;;;;20.67;4.93;;;;;;;;;;4961593;28;20055;-67
2022/06/15 06:57:36;;;;;;;16.00;5.10;;;;;;;;;;4958229;28;20039;-71
2022/06/15 07:00:02;;;;;;;10.95;4.25;;;;;;;;;;4960459;28;20492;-74
2022/06/15 07:02:28;;;;;;;19.77;5.60;;;;;;;;;;4967272;28;20047;-72
2022/06/15 07:04:54;;;;;;;13.23;4.05;;;;;;;;;;4967501;28;20559;-73
2022/06/15 07:07:20;;;;;;;19.38;4.53;;;;;;;;;;4964471;28;20551;-72
2022/06/15 07:09:46;;;;;;;12.85;4.50;;;;;;;;;;4960489;28;20113;-77
2022/06/15 07:12:11;;;;;;;14.88;4.60;;;;;;;;;;4965218;28;20046;-79
2022/06/15 07:14:37;;;;;;;13.50;3.90;;;;;;;;;;4955939;28;20134;-77
2022/06/15 07:17:04;;;;;;;10.30;3.63;;;;;;;;;;4957262;28;20627;-73
2022/06/15 07:19:29;;;;;;;23.33;5.78;;;;;;;;;;4961517;28;20064;-79
2022/06/15 07:21:56;;;;;;;14.98;3.50;;;;;;;;;;4953749;28;20075;-76
2022/06/15 07:24:22;;;;;;;11.77;3.53;;;;;;;;;;4965395;28;20050;-78
2022/06/15 07:26:47;;;;;;;14.32;3.88;;;;;;;;;;4975340;28;20124;-73
2022/06/15 07:29:18;;;;;;;11.38;3.13;;;;;;;;;;4966991;28;20058;-73
2022/06/15 07:31:47;;;;;;;12.43;3.10;;;;;;;;;;4962575;28;20059;-74
2022/06/15 07:34:13;;;;;;;9.90;3.00;;;;;;;;;;4961101;28;20114;-72
2022/06/15 07:36:46;;;;;;;11.85;2.90;;;;;;;;;;4960293;28;20429;-76
2022/06/15 07:39:17;;;;;;;11.15;2.70;;;;;;;;;;4958924;28;20551;-78
2022/06/15 07:41:44;;;;;;;8.20;2.70;;;;;;;;;;4959572;28;20062;-76
2022/06/15 07:44:10;;;;;;;9.43;2.90;;;;;;;;;;4962610;28;20059;-76
2022/06/15 07:46:36;;;;;;;9.43;2.92;;;;;;;;;;4961828;28;20043;-76
2022/06/15 07:52:04;;;;;;;;;;;;;;;;;;4969483;28;20266;-71
2022/06/15 07:54:30;;;;;;;11.05;3.13;;;;;;;;;;4967140;28;19922;-76
2022/06/15 07:56:57;;;;;;;7.70;2.60;;;;;;;;;;4967731;28;20449;-72
2022/06/15 07:59:23;;;;;;;8.27;2.67;;;;;;;;;;4962006;28;20050;-75
2022/06/15 08:01:49;;;;;;;14.32;2.95;;;;;;;;;;4961377;28;20054;-72
2022/06/15 08:04:16;;;;;;;14.10;3.10;;;;;;;;;;4962315;28;20883;-74
2022/06/15 08:06:44;;;;;;;9.25;2.67;;;;;;;;;;4963904;28;20109;-77
2022/06/15 08:09:13;;;;;;;5.93;2.60;;;;;;;;;;4963615;28;20050;-79
2022/06/15 08:12:11;;;;;;;7.90;2.60;;;;;;;;;;4964319;28;20528;-70
2022/06/15 08:14:27;;;;;;;8.55;2.35;;;;;;;;;;4958252;28;20047;-72
2022/06/15 08:16:53;;;;;;;9.00;2.65;;;;;;;;;;4958647;28;20058;-73
2022/06/15 08:19:18;;;;;;;5.55;1.90;;;;;;;;;;4958936;28;20047;-74
2022/06/15 08:21:44;;;;;;;8.18;2.30;;;;;;;;;;4962794;28;20051;-74
2022/06/15 08:24:10;;;;;;;7.38;2.50;;;;;;;;;;4970605;28;20042;-75
2022/06/15 08:26:37;;;;;;;8.57;2.28;;;;;;;;;;4968999;28;20170;-76
2022/06/15 08:29:10;;;;;;;6.68;2.20;;;;;;;;;;4968802;28;20098;-76
2022/06/15 08:31:36;;;;;;;13.82;2.38;;;;;;;;;;4971195;28;20065;-74
2022/06/15 08:34:03;;;;;;;7.25;2.60;;;;;;;;;;4967281;28;20039;-71
2022/06/15 08:36:30;;;;;;;11.77;2.55;;;;;;;;;;4958557;28;20065;-71
2022/06/15 08:38:56;;;;;;;6.05;2.40;;;;;;;;;;4968152;28;20046;-74
2022/06/15 08:41:46;;;;;;;6.95;2.10;;;;;;;;;;4966424;28;20046;-75
2022/06/15 08:44:50;;;;;;;9.68;2.38;;;;;;;;;;4964783;28;20130;-81
2022/06/15 08:47:40;;;;;;;8.73;2.30;;;;;;;;;;4955603;28;20047;-79
2022/06/15 08:50:34;;;;;;;13.55;2.50;;;;;;;;;;4963657;28;20512;-75
2022/06/15 08:53:06;;;;;;;;;;;;;;;;;;4962741;28;20106;-78
2022/06/15 08:55:32;;;;;;;5.72;2.10;;;;;;;;;;4963915;28;19922;-69
2022/06/15 08:58:11;;;;;;;10.73;2.28;;;;;;;;;;4952045;28;20051;-70
2022/06/15 09:00:39;;;;;;;8.32;2.10;;;;;;;;;;4958736;28;21149;-72
2022/06/15 09:03:24;;;;;;;8.43;2.38;;;;;;;;;;4957785;28;20112;-73
2022/06/15 09:06:25;;;;;;;10.95;2.90;;;;;;;;;;4957571;28;20126;-71
2022/06/15 09:09:26;;;;;;;10.10;2.67;;;;;;;;;;4966081;28;20062;-69
2022/06/15 09:12:49;;;;;;;7.30;2.38;;;;;;;;;;4960414;28;20133;-74
2022/06/15 09:15:03;;;;;;;12.05;2.65;;;;;;;;;;4961295;28;20050;-76
2022/06/15 09:17:31;;;;;;;13.02;2.83;;;;;;;;;;4965514;28;20059;-73
2022/06/15 09:20:05;;;;;;;7.55;2.47;;;;;;;;;;4959135;28;20090;-75
2022/06/15 09:22:46;;;;;;;11.93;2.47;;;;;;;;;;4964884;28;20455;-69
2022/06/15 09:25:28;;;;;;;8.27;2.55;;;;;;;;;;4959535;28;20051;-69
2022/06/15 09:27:59;;;;;;;10.85;2.70;;;;;;;;;;4955222;28;20488;-70
2022/06/15 09:30:31;;;;;;;6.82;2.50;;;;;;;;;;4967462;28;20035;-70
2022/06/15 09:33:08;;;;;;;7.72;2.50;;;;;;;;;;4969375;28;20054;-71
2022/06/15 09:35:41;;;;;;;12.10;2.47;;;;;;;;;;4959327;28;20054;-73
2022/06/15 09:38:12;;;;;;;14.18;2.70;;;;;;;;;;4961080;28;20496;-77
2022/06/15 09:40:53;;;;;;;7.90;2.28;;;;;;;;;;4957522;28;20051;-75
2022/06/15 09:43:47;;;;;;;7.78;2.80;;;;;;;;;;4971900;28;20110;-72
2022/06/15 09:49:21;;;;;;;10.45;2.70;;;;;;;;;;5094230;27;20403;-74
2022/06/15 09:52:21;;;;;;;12.25;2.92;;;;;;;;;;5100642;28;20484;-71
2022/06/15 09:55:07;;;;;;;12.32;2.78;;;;;;;;;;5092718;28;20051;-77
2022/06/15 09:57:38;;;;;;;7.90;2.65;;;;;;;;;;5095619;28;20078;-73
2022/06/15 10:00:09;;;;;;;10.40;2.47;;;;;;;;;;5070363;28;20178;-70
2022/06/15 10:02:38;;;;;;;10.48;2.38;;;;;;;;;;5103917;28;20039;-74
2022/06/15 10:05:14;;;;;;;10.52;2.90;;;;;;;;;;5099934;28;20396;-70
2022/06/15 10:07:44;;;;;;;7.20;2.63;;;;;;;;;;5085653;28;20459;-70
2022/06/15 10:10:30;;;;;;;6.97;2.63;;;;;;;;;;5097354;28;20480;-71
2022/06/15 10:13:02;;;;;;;15.70;2.47;;;;;;;;;;5094258;28;20332;-70
2022/06/15 10:15:50;;;;;;;8.98;2.35;;;;;;;;;;5089779;28;20067;-72
2022/06/15 10:18:36;;;;;;;9.38;2.28;;;;;;;;;;5089929;28;20068;-73
2022/06/15 10:21:32;;;;;;;12.38;2.53;;;;;;;;;;5093435;28;20074;-72
2022/06/15 10:24:14;;;;;;;6.25;2.08;;;;;;;;;;5095610;28;20138;-74
2022/06/15 10:26:52;;;;;;;4.43;2.00;;;;;;;;;;5086474;28;20072;-72
2022/06/15 10:29:27;;;;;;;8.25;1.92;;;;;;;;;;5098598;28;20044;-71
2022/06/15 10:32:10;;;;;;;8.43;2.17;;;;;;;;;;5098096;28;20414;-72
2022/06/15 10:34:46;;;;;;;4.82;1.92;;;;;;;;;;5096375;28;20044;-72
2022/06/15 10:37:27;;;;;;;6.63;2.25;;;;;;;;;;5089712;28;20055;-77
2022/06/15 10:39:58;;;;;;;4.85;2.38;;;;;;;;;;5086796;28;20048;-70
2022/06/15 10:42:41;;;;;;;9.07;2.33;;;;;;;;;;5099304;28;20131;-70
2022/06/15 10:45:19;;;;;;;5.53;2.17;;;;;;;;;;5090594;28;20040;-73
2022/06/15 10:47:52;;;;;;;9.07;2.05;;;;;;;;;;5079656;28;20082;-72
2022/06/15 10:50:32;;;;;;;7.07;2.20;;;;;;;;;;5073317;28;20055;-73
2022/06/15 10:53:01;;;;;;;7.20;2.08;;;;;;;;;;5092290;28;20169;-72
2022/06/15 11:04:09;;;;;;;5.85;2.00;;;;;;;;;;5069601;28;20051;-75
2022/06/15 11:06:37;;;;;;;6.35;2.00;;;;;;;;;;5083137;28;20044;-73
2022/06/15 11:09:06;;;;;;;5.80;1.90;;;;;;;;;;5078082;28;20043;-72
2022/06/15 11:11:35;;;;;;;10.23;2.28;;;;;;;;;;5075098;28;20047;-73
2022/06/15 11:14:07;;;;;;;5.85;1.67;;;;;;;;;;5059867;28;20056;-71
2022/06/15 11:19:22;;;;;;;7.75;1.77;;;;;;;;;;5085195;28;20075;-74
2022/06/15 11:21:57;;;;;;;9.55;2.03;;;;;;;;;;5078404;28;20044;-75
2022/06/15 11:24:35;;;;;;;4.22;1.60;;;;;;;;;;5071572;28;20490;-72
2022/06/15 11:27:29;;;;;;;7.00;1.85;;;;;;;;;;5070827;28;20465;-73
2022/06/15 11:30:12;;;;;;;6.80;1.75;;;;;;;;;;5081646;28;20041;-72
2022/06/15 11:32:38;;;;;;;7.45;1.77;;;;;;;;;;5068945;28;20434;-75
2022/06/15 11:35:13;;;;;;;4.32;1.70;;;;;;;;;;5076842;28;20060;-70
2022/06/15 11:37:45;;;;;;;8.07;1.73;;;;;;;;;;5070417;28;20278;-73
2022/06/15 11:40:24;;;;;;;8.02;2.13;;;;;;;;;;5067202;28;20044;-74
2022/06/15 11:42:52;;;;;;;9.25;2.38;;;;;;;;;;5072459;28;20513;-71
2022/06/15 11:45:22;;;;;;;10.50;2.65;;;;;;;;;;5085486;28;20044;-71
2022/06/15 11:48:06;;;;;;;7.90;2.42;;;;;;;;;;5079240;28;20136;-74
2022/06/15 11:50:38;;;;;;;7.00;2.40;;;;;;;;;;5079061;28;20485;-74
2022/06/15 11:53:29;;;;;;;9.50;2.05;;;;;;;;;;5079871;28;20036;-75
2022/06/15 11:56:08;;;;;;;7.50;2.35;;;;;;;;;;5074234;28;20048;-73
2022/06/15 11:59:03;;;;;;;5.43;2.13;;;;;;;;;;5081771;28;20048;-74
2022/06/15 12:01:31;;;;;;;10.80;2.15;;;;;;;;;;5070619;28;20067;-74
2022/06/15 12:04:19;;;;;;;5.95;1.73;;;;;;;;;;5076580;28;20048;-74
2022/06/15 12:07:13;;;;;;;9.75;2.28;;;;;;;;;;5079487;28;20064;-76
2022/06/15 12:09:47;;;;;;;5.07;1.65;;;;;;;;;;5079367;28;20040;-77
2022/06/15 12:12:39;;;;;;;6.28;1.92;;;;;;;;;;5071362;28;20067;-72
2022/06/15 12:15:20;;;;;;;6.70;1.95;;;;;;;;;;5079610;28;20049;-72
2022/06/15 12:17:52;;;;;;;8.52;2.08;;;;;;;;;;5081367;28;20044;-76
2022/06/15 12:20:39;;;;;;;5.60;1.90;;;;;;;;;;5074521;28;20059;-75
2022/06/15 12:23:20;;;;;;;6.22;1.58;;;;;;;;;;5083260;28;20049;-72
2022/06/15 12:26:22;;;;;;;4.68;1.70;;;;;;;;;;5082379;28;20040;-71
2022/06/15 12:28:51;;;;;;;5.30;1.67;;;;;;;;;;5071296;28;20335;-71
2022/06/15 12:31:35;;;;;;;7.18;1.80;;;;;;;;;;5077833;28;20424;-75
2022/06/15 12:34:01;;;;;;;4.78;1.67;;;;;;;;;;5079234;28;20530;-72
2022/06/15 12:36:43;;;;;;;6.25;1.67;;;;;;;;;;5068734;28;20139;-73
2022/06/15 12:39:08;;;;;;;5.07;1.60;;;;;;;;;;5083098;28;20042;-70
2022/06/15 12:44:29;;;;;;;5.13;1.60;;;;;;;;;;5083775;28;20048;-73
2022/06/15 12:46:56;;;;;;;7.40;1.60;;;;;;;;;;5082665;28;20052;-73
2022/06/15 12:49:50;;;;;;;6.20;1.73;;;;;;;;;;5076358;28;20557;-70
2022/06/15 12:52:44;;;;;;;4.60;1.50;;;;;;;;;;5085310;28;20516;-72
2022/06/15 12:55:29;;;;;;;6.90;1.80;;;;;;;;;;5082902;28;20054;-75
2022/06/15 12:58:03;;;;;;;5.47;1.40;;;;;;;;;;5072637;28;20565;-72
2022/06/15 13:00:41;;;;;;;4.93;1.45;;;;;;;;;;5083530;28;20048;-70
2022/06/15 13:03:19;;;;;;;7.03;1.17;;;;;;;;;;5077744;28;20331;-70
2022/06/15 13:05:45;;;;;;;5.15;1.45;;;;;;;;;;5070435;28;20550;-73
2022/06/15 13:08:25;;;;;;;3.83;1.20;;;;;;;;;;5080946;28;20109;-73
2022/06/15 13:10:53;;;;;;;4.75;1.45;;;;;;;;;;5080443;28;20043;-72
2022/06/15 13:13:36;;;;;;;6.85;1.63;;;;;;;;;;5082468;28;20036;-72
2022/06/15 13:16:30;;;;;;;6.68;1.60;;;;;;;;;;5077016;28;20417;-69
2022/06/15 13:18:57;;;;;;;3.28;1.40;;;;;;;;;;5038531;28;20150;-72
2022/06/15 13:21:25;;;;;;;7.38;1.50;;;;;;;;;;5076856;28;20050;-70
2022/06/15 13:24:07;;;;;;;3.80;1.42;;;;;;;;;;5069588;28;20140;-71
2022/06/15 13:26:41;;;;;;;5.28;1.42;;;;;;;;;;5077913;28;20100;-71
2022/06/15 13:29:10;;;;;;;5.75;1.50;;;;;;;;;;5071880;28;20482;-71
2022/06/15 13:31:46;;;;;;;11.30;1.80;;;;;;;;;;5072282;28;20039;-73
2022/06/15 13:34:35;;;;;;;10.30;1.58;;;;;;;;;;5093005;28;20044;-73
2022/06/15 13:37:18;;;;;;;6.38;1.50;;;;;;;;;;5070598;28;20151;-69
2022/06/15 13:39:47;;;;;;;3.93;1.30;;;;;;;;;;5080377;28;20056;-72
2022/06/15 13:42:29;;;;;;;6.03;1.60;;;;;;;;;;5066691;28;20293;-72
2022/06/15 13:45:33;;;;;;;2.88;1.30;;;;;;;;;;5066357;28;20055;-72
2022/06/15 13:48:33;;;;;;;2.85;1.40;;;;;;;;;;5081337;28;20055;-73
2022/06/15 13:51:10;;;;;;;7.45;1.77;;;;;;;;;;5073937;28;20433;-73
2022/06/15 13:54:04;;;;;;;5.60;1.73;;;;;;;;;;5084951;28;20576;-73
2022/06/15 13:56:29;;;;;;;9.07;1.80;;;;;;;;;;5084379;28;20055;-71
2022/06/15 13:59:08;;;;;;;9.50;2.17;;;;;;;;;;5076918;28;20052;-75
2022/06/15 14:01:46;;;;;;;6.15;1.83;;;;;;;;;;5073271;28;20048;-74
2022/06/15 14:04:34;;;;;;;4.43;1.75;;;;;;;;;;5076380;28;20098;-69
2022/06/15 14:07:31;;;;;;;7.22;1.88;;;;;;;;;;5083425;28;20493;-71
2022/06/15 14:10:07;;;;;;;9.75;1.63;;;;;;;;;;5085672;28;20127;-78
2022/06/15 14:12:58;;;;;;;8.18;1.50;;;;;;;;;;5083104;28;20059;-71
2022/06/15 14:15:51;;;;;;;8.43;2.00;;;;;;;;;;5079314;28;20041;-70
2022/06/15 14:18:58;;;;;;;3.33;1.52;;;;;;;;;;5079119;28;20040;-71
2022/06/15 14:21:28;;;;;;;4.20;1.35;;;;;;;;;;5052056;28;20070;-72
2022/06/15 14:23:55;;;;;;;6.10;1.55;;;;;;;;;;5079502;28;20123;-74
2022/06/15 14:26:24;;;;;;;6.80;1.70;;;;;;;;;;5049802;28;20538;-74
2022/06/15 14:28:58;;;;;;;6.72;1.67;;;;;;;;;;5056507;28;20047;-73
2022/06/15 14:31:32;;;;;;;6.25;1.55;;;;;;;;;;5075876;28;20047;-71
2022/06/15 14:34:17;;;;;;;5.43;1.58;;;;;;;;;;5078565;28;20036;-71
2022/06/15 14:36:55;;;;;;;5.53;1.73;;;;;;;;;;5078280;28;20059;-71
2022/06/15 14:39:24;;;;;;;4.97;1.10;;;;;;;;;;5086278;28;20051;-72
2022/06/15 14:42:06;;;;;;;4.75;1.42;;;;;;;;;;5080556;28;20052;-70
2022/06/15 14:44:33;;;;;;;5.72;1.77;;;;;;;;;;5082805;28;20059;-73
2022/06/15 14:47:05;;;;;;;5.30;1.80;;;;;;;;;;5083497;28;20332;-72
2022/06/15 14:49:36;;;;;;;9.52;1.90;;;;;;;;;;5076158;28;20473;-71
2022/06/15 14:52:09;;;;;;;10.32;2.10;;;;;;;;;;5069337;28;20078;-71
2022/06/15 14:54:36;;;;;;;5.10;1.40;;;;;;;;;;5075038;28;20651;-74
2022/06/15 14:57:02;;;;;;;5.28;1.70;;;;;;;;;;5066073;28;20036;-70
2022/06/15 14:59:42;;;;;;;4.97;1.83;;;;;;;;;;5048918;28;20105;-72
2022/06/15 15:02:09;;;;;;;7.82;1.80;;;;;;;;;;5068609;28;20039;-73
2022/06/15 15:04:39;;;;;;;5.60;1.65;;;;;;;;;;5075264;28;20400;-75
2022/06/15 15:10:30;;;;;;;7.78;1.55;;;;;;;;;;5074694;28;20039;-77
2022/06/15 15:13:13;;;;;;;7.18;1.75;;;;;;;;;;5080957;28;20604;-73
2022/06/15 15:15:41;;;;;;;8.67;1.60;;;;;;;;;;5057466;28;20471;-74
2022/06/15 15:18:16;;;;;;;8.35;1.50;;;;;;;;;;5071948;28;20115;-72
2022/06/15 15:20:47;;;;;;;6.88;1.77;;;;;;;;;;5076591;28;20510;-73
2022/06/15 15:23:14;;;;;;;5.30;2.08;;;;;;;;;;5054243;28;20131;-74
2022/06/15 15:25:49;;;;;;;10.15;2.58;;;;;;;;;;5071680;28;20102;-72
2022/06/15 15:34:11;;;;;;;7.07;1.70;;;;;;;;;;5067182;28;20481;-71
2022/06/15 15:39:38;;;;;;;12.82;3.42;;;;;;;;;;5081352;28;20040;-86
2022/06/15 15:42:05;;;;;;;9.48;2.55;;;;;;;;;;5074103;28;20074;-79
2022/06/15 15:44:32;;;;;;;8.15;2.03;;;;;;;;;;5069582;28;20051;-79
2022/06/15 15:46:59;;;;;;;7.20;2.60;;;;;;;;;;5082711;28;20059;-79
2022/06/15 15:49:26;;;;;;;9.98;2.40;;;;;;;;;;5084835;28;20045;-82